Terminal Aerodrome Forecast
Issued by NWS

Home | Current Version | Previous Version | Text Only | Print | Product List | Glossary On
Versions: 1 2 3 4 5 6 7 8 9 10 11 12 13 14 15 16
000
FTUS45 KABQ 291334 AAA
TAFLVS
TAF AMD
KLVS 291334Z 2914/3012 02016G26KT P6SM SCT025 BKN040
     FM291900 02016G26KT P6SM VCSH BKN050
     FM300200 19009KT P6SM SKC
     FM300800 26009KT P6SM SKC=

USA.gov is the U.S. government's official web portal to all federal, state and local government web resources and services.